createdAt,value
2022-10-31T00:00:45.508Z,13.85
2022-10-31T00:01:45.536Z,13.82
2022-10-31T00:02:45.510Z,13.83
2022-10-31T00:03:45.379Z,13.79
2022-10-31T00:04:45.374Z,13.78
2022-10-31T00:05:45.620Z,13.73
2022-10-31T00:06:45.356Z,13.73
2022-10-31T00:07:45.375Z,13.70
2022-10-31T00:08:45.318Z,13.68
2022-10-31T00:09:45.307Z,13.64
2022-10-31T00:10:45.335Z,13.64
2022-10-31T00:11:45.341Z,13.62
2022-10-31T00:12:45.279Z,13.61
2022-10-31T00:13:51.235Z,13.60
2022-10-31T00:14:51.783Z,13.58
2022-10-31T00:15:45.245Z,13.60
2022-10-31T00:16:45.229Z,13.57
2022-10-31T00:17:45.255Z,13.55
2022-10-31T00:18:45.476Z,13.57
2022-10-31T00:19:45.197Z,13.55
2022-10-31T00:20:45.189Z,13.54
2022-10-31T00:21:46.152Z,13.52
2022-10-31T00:22:45.214Z,13.54
2022-10-31T00:23:45.151Z,13.52
2022-10-31T00:24:45.147Z,13.54
2022-10-31T00:25:45.122Z,13.50
2022-10-31T00:26:45.168Z,13.50
2022-10-31T00:27:45.102Z,13.47
2022-10-31T00:28:45.095Z,13.45
2022-10-31T00:29:45.086Z,13.43
2022-10-31T00:30:45.258Z,13.43
2022-10-31T00:31:45.056Z,13.42
2022-10-31T00:32:45.087Z,13.42
2022-10-31T00:33:45.080Z,13.40
2022-10-31T00:34:45.043Z,13.40
2022-10-31T00:35:45.017Z,13.39
2022-10-31T00:36:45.008Z,13.40
2022-10-31T00:37:45.032Z,13.42
2022-10-31T00:38:44.999Z,13.43
2022-10-31T00:39:45.013Z,13.43
2022-10-31T00:40:44.963Z,13.45
2022-10-31T00:41:44.944Z,13.46
2022-10-31T00:42:44.982Z,13.45
2022-10-31T00:43:44.919Z,13.43
2022-10-31T00:44:44.956Z,13.42
2022-10-31T00:45:44.906Z,13.42
2022-10-31T00:46:44.911Z,13.40
2022-10-31T00:47:44.879Z,13.40
2022-10-31T00:48:44.871Z,13.42
2022-10-31T00:49:44.912Z,13.42
2022-10-31T00:50:44.849Z,13.37
2022-10-31T00:51:44.857Z,13.37
2022-10-31T00:52:44.829Z,13.36
2022-10-31T00:53:44.846Z,13.36
2022-10-31T00:54:44.840Z,13.31
2022-10-31T00:55:44.787Z,13.30
2022-10-31T00:56:44.773Z,13.27
2022-10-31T00:57:44.801Z,13.30
2022-10-31T00:58:44.755Z,13.30
2022-10-31T00:59:44.750Z,13.30
2022-10-31T01:00:48.109Z,13.30
2022-10-31T01:01:44.898Z,13.30
2022-10-31T01:02:44.853Z,13.30
2022-10-31T01:03:44.694Z,13.28
2022-10-31T01:04:44.726Z,13.28
2022-10-31T01:05:44.675Z,13.27
2022-10-31T01:06:44.663Z,13.27
2022-10-31T01:07:44.654Z,13.28
2022-10-31T01:08:44.685Z,13.27
2022-10-31T01:09:44.625Z,13.28
2022-10-31T01:10:44.625Z,13.26
2022-10-31T01:11:44.612Z,13.26
2022-10-31T01:12:44.599Z,13.24
2022-10-31T01:13:45.156Z,13.24
2022-10-31T01:14:44.628Z,13.23
2022-10-31T01:15:44.564Z,13.23
2022-10-31T01:16:44.583Z,13.26
2022-10-31T01:17:44.544Z,13.24
2022-10-31T01:18:44.564Z,13.23
2022-10-31T01:19:44.514Z,13.21
2022-10-31T01:20:44.500Z,13.21
2022-10-31T01:21:44.494Z,13.20
2022-10-31T01:22:44.478Z,13.19
2022-10-31T01:23:44.510Z,13.17
2022-10-31T01:24:44.510Z,13.17
2022-10-31T01:25:44.449Z,13.17
2022-10-31T01:26:44.469Z,13.16
2022-10-31T01:27:44.692Z,13.16
2022-10-31T01:28:44.411Z,13.17
2022-10-31T01:29:44.450Z,13.16
2022-10-31T01:30:44.449Z,13.16
2022-10-31T01:31:44.408Z,13.16
2022-10-31T01:32:44.377Z,13.13
2022-10-31T01:33:44.358Z,13.12
2022-10-31T01:34:44.343Z,13.16
2022-10-31T01:35:44.373Z,13.12
2022-10-31T01:36:44.322Z,13.12
2022-10-31T01:37:44.307Z,13.12
2022-10-31T01:38:44.309Z,13.13
2022-10-31T01:39:44.327Z,13.12
2022-10-31T01:41:02.714Z,13.11
2022-10-31T01:41:44.268Z,13.12
2022-10-31T01:42:44.266Z,13.12
2022-10-31T01:43:44.244Z,13.12
2022-10-31T01:44:44.289Z,13.12
2022-10-31T01:45:44.254Z,13.11
2022-10-31T01:46:44.208Z,13.13
2022-10-31T01:47:44.213Z,13.16
2022-10-31T01:48:44.188Z,13.17
2022-10-31T01:49:44.212Z,13.19
2022-10-31T01:50:44.178Z,13.19
2022-10-31T01:51:44.149Z,13.19
2022-10-31T01:52:44.145Z,13.19
2022-10-31T01:53:44.137Z,13.17
2022-10-31T01:54:44.168Z,13.20
2022-10-31T01:55:44.111Z,13.20
2022-10-31T01:56:44.111Z,13.19
2022-10-31T01:57:44.091Z,13.20
2022-10-31T01:58:44.078Z,13.19
2022-10-31T01:59:44.096Z,13.19
2022-10-31T02:00:44.177Z,13.17
2022-10-31T02:01:44.184Z,13.16
2022-10-31T02:02:44.139Z,13.16
2022-10-31T02:03:44.013Z,13.13
2022-10-31T02:04:44.013Z,13.11
2022-10-31T02:05:44.035Z,13.11
2022-10-31T02:06:44.700Z,13.09
2022-10-31T02:07:43.967Z,13.11
2022-10-31T02:08:43.967Z,13.11
2022-10-31T02:09:44.677Z,13.11
2022-10-31T02:10:43.969Z,13.08
2022-10-31T02:11:44.651Z,13.11
2022-10-31T02:12:43.917Z,13.09
2022-10-31T02:13:43.905Z,13.09
2022-10-31T02:14:43.905Z,13.06
2022-10-31T02:15:43.915Z,13.06
2022-10-31T02:16:43.874Z,13.05
2022-10-31T02:17:43.868Z,13.05
2022-10-31T02:18:43.851Z,13.05
2022-10-31T02:19:43.842Z,13.05
2022-10-31T02:20:43.984Z,12.99
2022-10-31T02:21:43.808Z,13.01
2022-10-31T02:22:43.895Z,13.01
2022-10-31T02:23:45.220Z,12.98
2022-10-31T02:24:43.792Z,12.98
2022-10-31T02:25:43.807Z,12.98
2022-10-31T02:26:43.754Z,12.99
2022-10-31T02:27:43.745Z,12.98
2022-10-31T02:28:43.734Z,12.95
2022-10-31T02:29:43.727Z,12.98
2022-10-31T02:30:43.759Z,12.95
2022-10-31T02:31:43.705Z,12.95
2022-10-31T02:32:43.698Z,12.95
2022-10-31T02:33:43.689Z,12.98
2022-10-31T02:34:43.723Z,13.01
2022-10-31T02:35:43.717Z,13.01
2022-10-31T02:36:43.648Z,13.01
2022-10-31T02:37:44.529Z,13.03
2022-10-31T02:38:43.680Z,13.06
2022-10-31T02:39:43.620Z,13.06
2022-10-31T02:40:43.615Z,13.08
2022-10-31T02:41:43.588Z,13.08
2022-10-31T02:42:43.581Z,13.11
2022-10-31T02:43:43.601Z,13.11
2022-10-31T02:44:43.589Z,13.12
2022-10-31T02:45:43.553Z,13.13
2022-10-31T02:46:43.556Z,13.13
2022-10-31T02:47:43.534Z,13.13
2022-10-31T02:48:45.085Z,13.12
2022-10-31T02:49:43.494Z,13.12
2022-10-31T02:50:43.487Z,13.13
2022-10-31T02:51:43.537Z,13.11
2022-10-31T02:52:43.474Z,13.09
2022-10-31T02:53:43.488Z,13.09
2022-10-31T02:54:43.449Z,13.09
2022-10-31T02:55:44.179Z,13.09
2022-10-31T02:56:43.431Z,13.06
2022-10-31T02:57:43.438Z,13.03
2022-10-31T02:58:43.481Z,13.02
2022-10-31T02:59:43.373Z,13.01
2022-10-31T03:00:44.838Z,12.98
2022-10-31T03:01:43.485Z,12.98
2022-10-31T03:02:43.549Z,12.94
2022-10-31T03:03:43.359Z,12.93
2022-10-31T03:04:44.186Z,12.91
2022-10-31T03:05:43.351Z,12.91
2022-10-31T03:06:43.313Z,12.90
2022-10-31T03:07:43.290Z,12.91
2022-10-31T03:08:43.281Z,12.90
2022-10-31T03:09:43.297Z,12.90
2022-10-31T03:10:43.257Z,12.88
2022-10-31T03:11:49.221Z,12.86
2022-10-31T03:12:46.141Z,12.87
2022-10-31T03:13:43.232Z,12.86
2022-10-31T03:14:43.503Z,12.87
2022-10-31T03:15:43.208Z,12.87
2022-10-31T03:16:43.222Z,12.86
2022-10-31T03:17:43.448Z,12.87
2022-10-31T03:18:43.168Z,12.90
2022-10-31T03:19:43.205Z,12.87
2022-10-31T03:20:43.145Z,12.88
2022-10-31T03:21:43.127Z,12.87
2022-10-31T03:22:43.129Z,12.86
2022-10-31T03:23:43.141Z,12.86
2022-10-31T03:24:43.114Z,12.84
2022-10-31T03:25:43.088Z,12.80
2022-10-31T03:26:43.078Z,12.78
2022-10-31T03:27:43.069Z,12.75
2022-10-31T03:28:43.087Z,12.72
2022-10-31T03:29:43.040Z,12.69
2022-10-31T03:30:43.081Z,12.66
2022-10-31T03:31:43.018Z,12.66
2022-10-31T03:32:43.015Z,12.65
2022-10-31T03:33:43.923Z,12.63
2022-10-31T03:34:43.025Z,12.62
2022-10-31T03:35:42.976Z,12.62
2022-10-31T03:36:42.962Z,12.58
2022-10-31T03:37:42.972Z,12.55
2022-10-31T03:38:42.943Z,12.54
2022-10-31T03:39:42.964Z,12.51
2022-10-31T03:40:43.609Z,12.50
2022-10-31T03:41:42.912Z,12.48
2022-10-31T03:42:42.896Z,12.45
2022-10-31T03:43:42.915Z,12.44
2022-10-31T03:44:42.868Z,12.39
2022-10-31T03:45:42.896Z,12.36
2022-10-31T03:46:42.853Z,12.36
2022-10-31T03:47:42.836Z,12.33
2022-10-31T03:48:42.844Z,12.32
2022-10-31T03:49:42.857Z,12.32
2022-10-31T03:50:42.851Z,12.30
2022-10-31T03:51:42.794Z,12.29
2022-10-31T03:52:42.784Z,12.26
2022-10-31T03:53:42.765Z,12.25
2022-10-31T03:54:42.799Z,12.21
2022-10-31T03:55:42.751Z,12.21
2022-10-31T03:56:42.873Z,12.20
2022-10-31T03:57:42.729Z,12.18
2022-10-31T03:58:42.727Z,12.18
2022-10-31T03:59:42.706Z,12.17
2022-10-31T04:00:42.695Z,12.17
2022-10-31T04:01:42.821Z,12.17
2022-10-31T04:02:42.800Z,12.20
2022-10-31T04:03:42.658Z,12.21
2022-10-31T04:04:42.656Z,12.23
2022-10-31T04:05:42.669Z,12.25
2022-10-31T04:06:42.628Z,12.20
2022-10-31T04:07:42.602Z,12.18
2022-10-31T04:08:42.603Z,12.18
2022-10-31T04:09:42.607Z,12.15
2022-10-31T04:10:42.612Z,12.11
2022-10-31T04:11:42.599Z,12.08
2022-10-31T04:12:42.544Z,12.08
2022-10-31T04:13:42.555Z,12.07
2022-10-31T04:14:42.538Z,12.05
2022-10-31T04:15:42.514Z,12.03
2022-10-31T04:16:42.548Z,12.05
2022-10-31T04:17:42.495Z,12.02
2022-10-31T04:18:42.483Z,11.97
2022-10-31T04:19:42.486Z,11.96
2022-10-31T04:20:42.464Z,11.95
2022-10-31T04:21:43.085Z,11.93
2022-10-31T04:22:42.443Z,11.91
2022-10-31T04:23:42.431Z,11.88
2022-10-31T04:24:42.411Z,11.85
2022-10-31T04:25:42.451Z,11.85
2022-10-31T04:26:42.431Z,11.85
2022-10-31T04:27:42.385Z,11.86
2022-10-31T04:28:42.643Z,11.85
2022-10-31T04:29:45.489Z,11.81
2022-10-31T04:30:42.348Z,11.83
2022-10-31T04:31:42.385Z,11.83
2022-10-31T04:32:43.182Z,11.83
2022-10-31T04:33:42.316Z,11.83
2022-10-31T04:34:42.306Z,11.85
2022-10-31T04:35:42.329Z,11.85
2022-10-31T04:36:42.277Z,11.86
2022-10-31T04:37:42.273Z,11.85
2022-10-31T04:38:42.256Z,11.86
2022-10-31T04:39:42.255Z,11.85
2022-10-31T04:40:42.283Z,11.85
2022-10-31T04:41:42.216Z,11.85
2022-10-31T04:42:42.226Z,11.83
2022-10-31T04:43:42.202Z,11.83
2022-10-31T04:44:42.188Z,11.81
2022-10-31T04:45:42.218Z,11.81
2022-10-31T04:46:42.208Z,11.81
2022-10-31T04:47:42.156Z,11.80
2022-10-31T04:48:42.140Z,11.83
2022-10-31T04:49:42.132Z,11.83
2022-10-31T04:50:42.119Z,11.80
2022-10-31T04:51:42.146Z,11.81
2022-10-31T04:52:42.135Z,11.81
2022-10-31T04:53:42.082Z,11.80
2022-10-31T04:54:42.159Z,11.81
2022-10-31T04:55:42.081Z,11.81
2022-10-31T04:56:42.087Z,11.81
2022-10-31T04:57:42.042Z,11.81
2022-10-31T04:58:42.095Z,11.85
2022-10-31T04:59:42.054Z,11.86
2022-10-31T05:00:42.098Z,11.85
2022-10-31T05:01:42.145Z,11.83
2022-10-31T05:02:44.450Z,11.81
2022-10-31T05:03:41.964Z,11.81
2022-10-31T05:04:41.966Z,11.81
2022-10-31T05:05:41.955Z,11.80
2022-10-31T05:06:41.948Z,11.80
2022-10-31T05:07:41.971Z,11.78
2022-10-31T05:08:41.920Z,11.77
2022-10-31T05:09:41.904Z,11.76
2022-10-31T05:10:41.907Z,11.74
2022-10-31T05:11:41.882Z,11.74
2022-10-31T05:12:41.900Z,11.73
2022-10-31T05:13:41.859Z,11.74
2022-10-31T05:14:43.524Z,11.74
2022-10-31T05:15:41.835Z,11.76
2022-10-31T05:16:41.851Z,11.74
2022-10-31T05:17:41.818Z,11.76
2022-10-31T05:18:41.846Z,11.76
2022-10-31T05:19:41.794Z,11.74
2022-10-31T05:20:41.779Z,11.74
2022-10-31T05:21:41.778Z,11.71
2022-10-31T05:22:42.712Z,11.70
2022-10-31T05:23:45.875Z,11.70
2022-10-31T05:24:41.744Z,11.67
2022-10-31T05:25:41.782Z,11.65
2022-10-31T05:26:41.745Z,11.67
2022-10-31T05:27:41.726Z,11.62
2022-10-31T05:28:41.723Z,11.60
2022-10-31T05:29:41.718Z,11.59
2022-10-31T05:30:41.668Z,11.60
2022-10-31T05:31:41.687Z,11.59
2022-10-31T05:32:41.642Z,11.60
2022-10-31T05:33:41.631Z,11.60
2022-10-31T05:34:41.650Z,11.60
2022-10-31T05:35:41.615Z,11.62
2022-10-31T05:36:41.589Z,11.62
2022-10-31T05:37:41.642Z,11.60
2022-10-31T05:38:41.570Z,11.63
2022-10-31T05:39:41.604Z,11.60
2022-10-31T05:40:41.549Z,11.59
2022-10-31T05:41:41.541Z,11.59
2022-10-31T05:42:41.517Z,11.60
2022-10-31T05:43:41.521Z,11.58
2022-10-31T05:44:41.497Z,11.58
2022-10-31T05:45:41.532Z,11.58
2022-10-31T05:46:52.215Z,11.55
2022-10-31T05:47:43.696Z,11.56
2022-10-31T05:48:41.460Z,11.53
2022-10-31T05:49:41.450Z,11.55
2022-10-31T05:50:41.469Z,11.55
2022-10-31T05:51:41.421Z,11.52
2022-10-31T05:52:41.454Z,11.51
2022-10-31T05:53:41.617Z,11.51
2022-10-31T05:54:42.060Z,11.49
2022-10-31T05:55:41.433Z,11.48
2022-10-31T05:56:41.361Z,11.49
2022-10-31T05:57:41.355Z,11.48
2022-10-31T05:58:41.362Z,11.45
2022-10-31T05:59:41.331Z,11.45
2022-10-31T06:00:41.352Z,11.45
2022-10-31T06:01:42.078Z,11.41
2022-10-31T06:02:41.293Z,11.41
2022-10-31T06:03:41.331Z,11.40
2022-10-31T06:04:41.327Z,11.38
2022-10-31T06:05:41.309Z,11.35
2022-10-31T06:06:41.245Z,11.35
2022-10-31T06:07:41.247Z,11.34
2022-10-31T06:08:41.232Z,11.33
2022-10-31T06:09:41.233Z,11.33
2022-10-31T06:10:41.245Z,11.31
2022-10-31T06:11:41.203Z,11.31
2022-10-31T06:12:41.189Z,11.30
2022-10-31T06:13:41.217Z,11.33
2022-10-31T06:14:41.155Z,11.34
2022-10-31T06:15:41.159Z,11.33
2022-10-31T06:16:41.143Z,11.33
2022-10-31T06:17:41.187Z,11.33
2022-10-31T06:18:41.144Z,11.31
2022-10-31T06:19:41.198Z,11.27
2022-10-31T06:20:41.129Z,11.26
2022-10-31T06:21:41.077Z,11.27
2022-10-31T06:22:41.083Z,11.26
2022-10-31T06:23:41.057Z,11.23
2022-10-31T06:24:41.039Z,11.20
2022-10-31T06:25:41.081Z,11.18
2022-10-31T06:26:41.066Z,11.16
2022-10-31T06:27:41.011Z,11.15
2022-10-31T06:28:41.024Z,11.13
2022-10-31T06:29:47.694Z,11.12
2022-10-31T06:30:46.940Z,11.12
2022-10-31T06:31:47.249Z,11.12
2022-10-31T06:32:40.953Z,11.12
2022-10-31T06:33:40.938Z,11.08
2022-10-31T06:34:40.972Z,11.08
2022-10-31T06:35:40.932Z,11.04
2022-10-31T06:36:40.918Z,11.04
2022-10-31T06:37:43.390Z,11.00
2022-10-31T06:38:40.890Z,10.98
2022-10-31T06:39:41.190Z,11.00
2022-10-31T06:40:40.859Z,11.00
2022-10-31T06:41:40.853Z,10.98
2022-10-31T06:42:40.845Z,10.98
2022-10-31T06:43:40.833Z,10.98
2022-10-31T06:44:40.849Z,10.97
2022-10-31T06:45:40.810Z,10.94
2022-10-31T06:46:42.786Z,10.94
2022-10-31T06:47:56.680Z,10.94
2022-10-31T06:48:40.781Z,10.92
2022-10-31T06:49:40.765Z,10.92
2022-10-31T06:50:40.790Z,10.92
2022-10-31T06:51:40.808Z,10.92
2022-10-31T06:52:40.724Z,10.90
2022-10-31T06:53:40.720Z,10.90
2022-10-31T06:54:40.720Z,10.90
2022-10-31T06:55:40.735Z,10.89
2022-10-31T06:56:40.697Z,10.92
2022-10-31T06:57:40.676Z,10.89
2022-10-31T06:58:41.226Z,10.90
2022-10-31T06:59:40.648Z,10.90
2022-10-31T07:00:40.756Z,10.89
2022-10-31T07:01:40.790Z,10.87
2022-10-31T07:02:40.667Z,10.86
2022-10-31T07:03:40.646Z,10.86
2022-10-31T07:04:40.613Z,10.87
2022-10-31T07:05:40.590Z,10.86
2022-10-31T07:06:40.564Z,10.92
2022-10-31T07:07:40.561Z,10.97
2022-10-31T07:08:40.578Z,10.98
2022-10-31T07:09:40.596Z,11.02
2022-10-31T07:10:41.014Z,11.02
2022-10-31T07:11:40.512Z,11.04
2022-10-31T07:12:40.543Z,11.04
2022-10-31T07:13:40.492Z,11.04
2022-10-31T07:14:40.470Z,11.04
2022-10-31T07:15:40.526Z,11.05
2022-10-31T07:16:40.464Z,11.05
2022-10-31T07:17:40.492Z,11.07
2022-10-31T07:18:40.429Z,11.07
2022-10-31T07:19:40.422Z,11.10
2022-10-31T07:20:41.231Z,11.13
2022-10-31T07:21:40.413Z,11.13
2022-10-31T07:22:41.238Z,11.15
2022-10-31T07:23:40.692Z,11.16
2022-10-31T07:24:40.356Z,11.18
2022-10-31T07:25:40.360Z,11.20
2022-10-31T07:26:40.374Z,11.22
2022-10-31T07:27:42.793Z,11.22
2022-10-31T07:28:40.341Z,11.25
2022-10-31T07:29:40.809Z,11.26
2022-10-31T07:30:40.421Z,11.30
2022-10-31T07:31:40.318Z,11.30
2022-10-31T07:32:40.330Z,11.30
2022-10-31T07:33:40.260Z,11.30
2022-10-31T07:34:44.873Z,11.30
2022-10-31T07:35:40.267Z,11.33
2022-10-31T07:36:40.262Z,11.33
2022-10-31T07:37:40.218Z,11.33
2022-10-31T07:38:40.205Z,11.34
2022-10-31T07:39:40.203Z,11.34
2022-10-31T07:40:40.213Z,11.37
2022-10-31T07:41:40.187Z,11.37
2022-10-31T07:42:40.172Z,11.38
2022-10-31T07:43:40.189Z,11.41
2022-10-31T07:44:40.147Z,11.43
2022-10-31T07:45:42.794Z,11.45
2022-10-31T07:46:40.111Z,11.48
2022-10-31T07:47:40.115Z,11.52
2022-10-31T07:48:40.121Z,11.52
2022-10-31T07:49:40.094Z,11.55
2022-10-31T07:50:40.363Z,11.56
2022-10-31T07:51:45.533Z,11.59
2022-10-31T07:52:40.071Z,11.60
2022-10-31T07:53:40.096Z,11.60
2022-10-31T07:54:41.767Z,11.63
2022-10-31T07:55:40.050Z,11.65
2022-10-31T07:56:40.009Z,11.68
2022-10-31T07:57:40.014Z,11.68
2022-10-31T07:58:40.000Z,11.71
2022-10-31T07:59:40.003Z,11.73
2022-10-31T08:00:40.100Z,11.73
2022-10-31T08:01:39.937Z,11.73
2022-10-31T08:02:39.985Z,11.74
2022-10-31T08:03:39.971Z,11.76
2022-10-31T08:04:39.948Z,11.77
2022-10-31T08:05:40.180Z,11.76
2022-10-31T08:06:39.948Z,11.76
2022-10-31T08:07:39.878Z,11.77
2022-10-31T08:08:39.899Z,11.78
2022-10-31T08:09:39.940Z,11.80
2022-10-31T08:10:39.877Z,11.83
2022-10-31T08:11:39.869Z,11.85
2022-10-31T08:12:39.858Z,11.85
2022-10-31T08:13:39.811Z,11.86
2022-10-31T08:14:40.568Z,11.91
2022-10-31T08:15:39.782Z,11.93
2022-10-31T08:16:39.773Z,11.95
2022-10-31T08:17:39.811Z,11.95
2022-10-31T08:18:39.769Z,11.96
2022-10-31T08:19:39.777Z,11.97
2022-10-31T08:20:39.733Z,11.97
2022-10-31T08:21:39.789Z,12.00
2022-10-31T08:22:42.776Z,12.02
2022-10-31T08:23:39.691Z,12.00
2022-10-31T08:25:39.695Z,11.99
2022-10-31T08:26:39.690Z,11.99
2022-10-31T08:27:39.706Z,11.97
2022-10-31T08:28:40.204Z,11.99
2022-10-31T08:29:39.904Z,11.97
2022-10-31T08:30:39.629Z,11.99
2022-10-31T08:31:42.843Z,12.02
2022-10-31T08:32:39.617Z,12.02
2022-10-31T08:33:39.617Z,12.03
2022-10-31T08:34:39.576Z,12.07
2022-10-31T08:35:39.553Z,12.08
2022-10-31T08:36:39.566Z,12.10
2022-10-31T08:37:39.542Z,12.12
2022-10-31T08:38:39.577Z,12.14
2022-10-31T08:39:39.527Z,12.17
2022-10-31T08:40:39.499Z,12.18
2022-10-31T08:41:39.522Z,12.23
2022-10-31T08:42:39.754Z,12.25
2022-10-31T08:43:39.552Z,12.28
2022-10-31T08:44:39.448Z,12.32
2022-10-31T08:45:39.471Z,12.32
2022-10-31T08:46:39.435Z,12.36
2022-10-31T08:47:39.499Z,12.35
2022-10-31T08:48:39.507Z,12.36
2022-10-31T08:49:40.241Z,12.39
2022-10-31T08:50:39.399Z,12.40
2022-10-31T08:51:39.439Z,12.44
2022-10-31T08:53:03.653Z,12.47
2022-10-31T08:53:39.365Z,12.45
2022-10-31T08:54:41.183Z,12.45
2022-10-31T08:55:40.234Z,12.48
2022-10-31T08:56:39.339Z,12.53
2022-10-31T08:57:39.392Z,12.55
2022-10-31T08:58:40.498Z,12.58
2022-10-31T08:59:39.417Z,12.61
2022-10-31T09:00:39.421Z,12.63
2022-10-31T09:01:39.723Z,12.65
2022-10-31T09:02:39.433Z,12.69
2022-10-31T09:03:39.326Z,12.70
2022-10-31T09:04:39.371Z,12.72
2022-10-31T09:05:39.368Z,12.75
2022-10-31T09:06:46.461Z,12.76
2022-10-31T09:07:39.253Z,12.80
2022-10-31T09:08:39.197Z,12.78
2022-10-31T09:09:39.210Z,12.80
2022-10-31T09:10:39.728Z,12.81
2022-10-31T09:11:40.245Z,12.86
2022-10-31T09:12:40.572Z,12.90
2022-10-31T09:13:41.409Z,12.88
2022-10-31T09:14:39.188Z,12.91
2022-10-31T09:15:39.456Z,12.94
2022-10-31T09:16:39.149Z,12.98
2022-10-31T09:17:39.144Z,12.99
2022-10-31T09:18:39.130Z,12.99
2022-10-31T09:19:39.062Z,13.01
2022-10-31T09:20:39.094Z,12.99
2022-10-31T09:21:39.176Z,12.99
2022-10-31T09:22:39.159Z,12.95
2022-10-31T09:23:39.077Z,12.95
2022-10-31T09:24:39.162Z,12.94
2022-10-31T09:25:39.102Z,12.95
2022-10-31T09:26:39.014Z,12.94
2022-10-31T09:27:39.061Z,12.98
2022-10-31T09:28:39.022Z,13.01
2022-10-31T09:29:39.044Z,13.03
2022-10-31T09:30:38.994Z,13.08
2022-10-31T09:31:44.531Z,13.09
2022-10-31T09:32:39.621Z,13.12
2022-10-31T09:33:39.740Z,13.12
2022-10-31T09:34:38.981Z,13.16
2022-10-31T09:35:40.031Z,13.17
2022-10-31T09:36:38.920Z,13.20
2022-10-31T09:37:38.869Z,13.24
2022-10-31T09:38:38.996Z,13.24
2022-10-31T09:39:38.930Z,13.28
2022-10-31T09:40:39.018Z,13.31
2022-10-31T09:41:38.862Z,13.33
2022-10-31T09:42:38.947Z,13.36
2022-10-31T09:43:38.893Z,13.39
2022-10-31T09:44:38.943Z,13.40
2022-10-31T09:45:39.751Z,13.43
2022-10-31T09:46:38.855Z,13.46
2022-10-31T09:47:38.759Z,13.46
2022-10-31T09:48:39.741Z,13.52
2022-10-31T09:49:38.951Z,13.57
2022-10-31T09:50:39.657Z,13.60
2022-10-31T09:51:38.747Z,13.62
2022-10-31T09:52:38.682Z,13.67
2022-10-31T09:53:38.684Z,13.70
2022-10-31T09:54:38.673Z,13.75
2022-10-31T09:55:38.651Z,13.73
2022-10-31T09:56:38.689Z,13.71
2022-10-31T09:57:38.676Z,13.78
2022-10-31T09:58:39.090Z,13.79
2022-10-31T09:59:38.612Z,13.85
2022-10-31T10:00:38.695Z,13.82
2022-10-31T10:01:38.974Z,13.80
2022-10-31T10:02:38.650Z,13.80
2022-10-31T10:03:38.656Z,13.83
2022-10-31T10:04:38.568Z,13.85
2022-10-31T10:05:38.534Z,13.86
2022-10-31T10:06:40.283Z,13.85
2022-10-31T10:07:38.606Z,13.85
2022-10-31T10:08:38.556Z,13.87
2022-10-31T10:09:38.523Z,13.89
2022-10-31T10:10:38.488Z,13.91
2022-10-31T10:11:38.475Z,13.91
2022-10-31T10:12:39.216Z,13.91
2022-10-31T10:13:39.326Z,13.93
2022-10-31T10:14:38.529Z,13.94
2022-10-31T10:15:38.610Z,13.95
2022-10-31T10:16:38.824Z,13.98
2022-10-31T10:17:38.461Z,13.97
2022-10-31T10:18:38.428Z,13.97
2022-10-31T10:19:38.390Z,13.95
2022-10-31T10:20:38.404Z,13.98
2022-10-31T10:21:38.359Z,14.01
2022-10-31T10:22:38.355Z,14.03
2022-10-31T10:23:39.276Z,14.07
2022-10-31T10:24:38.337Z,14.05
2022-10-31T10:25:38.405Z,14.04
2022-10-31T10:26:38.586Z,14.05
2022-10-31T10:27:38.346Z,14.07
2022-10-31T10:28:38.306Z,14.11
2022-10-31T10:29:38.269Z,14.12
2022-10-31T10:30:39.128Z,14.12
2022-10-31T10:31:38.304Z,14.11
2022-10-31T10:32:38.231Z,14.08
2022-10-31T10:33:38.251Z,14.12
2022-10-31T10:34:39.081Z,14.16
2022-10-31T10:35:38.230Z,14.18
2022-10-31T10:36:38.815Z,14.20
2022-10-31T10:37:38.175Z,14.25
2022-10-31T10:38:38.205Z,14.23
2022-10-31T10:39:38.157Z,14.26
2022-10-31T10:40:38.196Z,14.25
2022-10-31T10:41:38.133Z,14.28
2022-10-31T10:42:38.128Z,14.25
2022-10-31T10:43:38.192Z,14.22
2022-10-31T10:44:38.092Z,14.25
2022-10-31T10:45:38.147Z,14.26
2022-10-31T10:46:38.719Z,14.30
2022-10-31T10:47:38.075Z,14.28
2022-10-31T10:48:38.082Z,14.31
2022-10-31T10:49:38.126Z,14.33
2022-10-31T10:50:38.045Z,14.33
2022-10-31T10:52:45.918Z,14.34
2022-10-31T10:53:38.336Z,14.38
2022-10-31T10:54:37.994Z,14.41
2022-10-31T10:55:38.756Z,14.41
2022-10-31T10:56:37.968Z,14.43
2022-10-31T10:57:37.988Z,14.43
2022-10-31T10:58:38.002Z,14.40
2022-10-31T10:59:38.010Z,14.41
2022-10-31T11:00:38.019Z,14.44
2022-10-31T11:01:37.936Z,14.45
2022-10-31T11:02:38.028Z,14.45
2022-10-31T11:03:37.956Z,14.48
2022-10-31T11:04:37.904Z,14.51
2022-10-31T11:05:37.948Z,14.56
2022-10-31T11:06:37.874Z,14.58
2022-10-31T11:07:37.891Z,14.66
2022-10-31T11:08:37.988Z,14.67
2022-10-31T11:09:38.743Z,14.67
2022-10-31T11:10:37.884Z,14.70
2022-10-31T11:11:37.819Z,14.77
2022-10-31T11:12:37.794Z,14.74
2022-10-31T11:13:38.085Z,14.77
2022-10-31T11:14:37.761Z,14.74
2022-10-31T11:15:37.749Z,14.77
2022-10-31T11:16:41.141Z,14.78
2022-10-31T11:17:37.728Z,14.85
2022-10-31T11:18:37.792Z,14.92
2022-10-31T11:19:37.718Z,14.96
2022-10-31T11:20:37.704Z,14.99
2022-10-31T11:21:37.745Z,15.02
2022-10-31T11:22:37.686Z,15.08
2022-10-31T11:23:37.692Z,15.12
2022-10-31T11:24:37.646Z,15.12
2022-10-31T11:25:37.667Z,15.15
2022-10-31T11:26:37.721Z,15.14
2022-10-31T11:27:37.631Z,15.15
2022-10-31T11:28:37.633Z,15.15
2022-10-31T11:29:37.598Z,15.17
2022-10-31T11:30:37.701Z,15.18
2022-10-31T11:31:37.650Z,15.17
2022-10-31T11:32:37.555Z,15.17
2022-10-31T11:33:39.241Z,15.14
2022-10-31T11:34:37.587Z,15.15
2022-10-31T11:36:37.545Z,15.10
2022-10-31T11:37:37.554Z,15.10
2022-10-31T11:38:37.719Z,15.07
2022-10-31T11:39:37.519Z,15.04
2022-10-31T11:40:37.502Z,15.00
2022-10-31T11:41:37.474Z,14.99
2022-10-31T11:42:37.466Z,14.96
2022-10-31T11:43:37.431Z,14.94
2022-10-31T11:44:37.464Z,14.92
2022-10-31T11:45:38.234Z,14.92
2022-10-31T11:46:37.413Z,14.92
2022-10-31T11:47:37.390Z,14.93
2022-10-31T11:48:37.402Z,14.93
2022-10-31T11:49:37.392Z,14.96
2022-10-31T11:50:37.389Z,14.94
2022-10-31T11:51:37.354Z,14.96
2022-10-31T11:52:43.679Z,14.94
2022-10-31T11:53:43.586Z,14.94
2022-10-31T11:54:37.335Z,14.94
2022-10-31T11:55:37.332Z,14.94
2022-10-31T11:56:37.295Z,14.96
2022-10-31T11:57:38.240Z,14.96
2022-10-31T11:58:37.278Z,14.99
2022-10-31T11:59:37.286Z,15.02
2022-10-31T12:00:37.404Z,15.10
2022-10-31T12:01:44.000Z,15.14
2022-10-31T12:02:37.343Z,15.19
2022-10-31T12:03:37.289Z,15.27
2022-10-31T12:04:37.214Z,15.35
2022-10-31T12:05:37.224Z,15.44
2022-10-31T12:06:37.319Z,15.50
2022-10-31T12:07:37.283Z,15.57
2022-10-31T12:08:37.307Z,15.63
2022-10-31T12:09:37.136Z,15.66
2022-10-31T12:10:37.424Z,15.66
2022-10-31T12:11:37.187Z,15.70
2022-10-31T12:12:37.147Z,15.76
2022-10-31T12:13:37.144Z,15.76
2022-10-31T12:14:37.128Z,15.78
2022-10-31T12:15:37.132Z,15.81
2022-10-31T12:16:37.242Z,15.81
2022-10-31T12:17:37.073Z,15.83
2022-10-31T12:18:37.073Z,15.85
2022-10-31T12:19:37.594Z,15.83
2022-10-31T12:20:37.014Z,15.80
2022-10-31T12:21:37.015Z,15.75
2022-10-31T12:22:37.036Z,15.80
2022-10-31T12:23:36.981Z,15.76
2022-10-31T12:24:37.065Z,15.78
2022-10-31T12:25:36.966Z,15.78
2022-10-31T12:26:37.078Z,15.81
2022-10-31T12:27:36.974Z,15.88
2022-10-31T12:28:41.361Z,15.98
2022-10-31T12:29:36.957Z,16.08
2022-10-31T12:30:36.899Z,16.24
2022-10-31T12:31:36.898Z,16.39
2022-10-31T12:32:36.906Z,16.69
2022-10-31T12:33:36.909Z,17.27
2022-10-31T12:34:36.855Z,18.00
2022-10-31T12:35:36.939Z,18.46
2022-10-31T12:36:36.877Z,18.85
2022-10-31T12:37:36.877Z,19.16
2022-10-31T12:38:36.872Z,19.35
2022-10-31T12:39:36.789Z,19.49
2022-10-31T12:40:36.792Z,19.74
2022-10-31T12:41:37.865Z,19.99
2022-10-31T12:42:36.859Z,20.24
2022-10-31T12:43:36.792Z,20.39
2022-10-31T12:44:36.741Z,20.50
2022-10-31T12:45:36.726Z,20.73
2022-10-31T12:46:36.713Z,20.93
2022-10-31T12:47:36.739Z,21.04
2022-10-31T12:48:36.687Z,20.92
2022-10-31T12:49:36.733Z,20.42
2022-10-31T12:50:36.687Z,19.74
2022-10-31T12:51:36.654Z,19.32
2022-10-31T12:52:36.698Z,19.23
2022-10-31T12:53:36.683Z,19.19
2022-10-31T12:54:36.647Z,19.11
2022-10-31T12:55:36.668Z,18.94